RYR504K LIPH-EPMO
Flight info
| Callsign | RYR504K |
|---|---|
| Flight time | 1h 42m |
| Altitude | 37000 |
| Route | ROKIB DCT MOBDO DCT LANUX DCT OKENO Q277 GOGUS |
| Aircraft | B738/M-SDE2E3FGHIRWXY/LB1 |
Departure
| Time | 2026-04-11 08:56 |
|---|---|
| Airport | Treviso Airport (LIPH) |
Arrival
| Time | 2026-04-11 10:39 |
|---|---|
| Airport | Warsaw Modlin Airport (EPMO) |
| Time | Latitude | Longitude | Altitude | Speed | Heading |
|---|---|---|---|---|---|
| 2026-04-11 08:39 | 45.65412 | 12.20538 | 54 ft | 0 kts | 340° |
| 2026-04-11 08:49 | 45.65401 | 12.20544 | 53 ft | 3 kts | 339° |
| 2026-04-11 08:49 | 45.65388 | 12.20551 | 52 ft | 3 kts | 339° |
| 2026-04-11 08:49 | 45.65369 | 12.20561 | 55 ft | 2 kts | 343° |
| 2026-04-11 08:50 | 45.65360 | 12.20563 | 54 ft | 1 kts | 17° |
| 2026-04-11 08:50 | 45.65352 | 12.20557 | 54 ft | 1 kts | 50° |
| 2026-04-11 08:50 | 45.65347 | 12.20547 | 57 ft | 1 kts | 62° |
| 2026-04-11 08:50 | 45.65344 | 12.20537 | 59 ft | 0 kts | 67° |
| 2026-04-11 08:51 | 45.65348 | 12.20550 | 52 ft | 3 kts | 67° |
| 2026-04-11 08:51 | 45.65361 | 12.20596 | 58 ft | 7 kts | 67° |
| 2026-04-11 08:52 | 45.65343 | 12.20746 | 58 ft | 9 kts | 155° |
| 2026-04-11 08:52 | 45.65283 | 12.20777 | 56 ft | 9 kts | 162° |
| 2026-04-11 08:52 | 45.65223 | 12.20783 | 61 ft | 9 kts | 212° |
| 2026-04-11 08:53 | 45.65194 | 12.20703 | 60 ft | 13 kts | 249° |
| 2026-04-11 08:53 | 45.65142 | 12.20511 | 61 ft | 29 kts | 249° |
| 2026-04-11 08:53 | 45.65049 | 12.20169 | 60 ft | 44 kts | 250° |
| 2026-04-11 08:53 | 45.64926 | 12.19693 | 56 ft | 55 kts | 249° |
| 2026-04-11 08:54 | 45.64793 | 12.19196 | 63 ft | 51 kts | 249° |
| 2026-04-11 08:54 | 45.64671 | 12.18737 | 59 ft | 47 kts | 249° |
| 2026-04-11 08:54 | 45.64559 | 12.18313 | 66 ft | 44 kts | 249° |
| 2026-04-11 08:54 | 45.64474 | 12.17992 | 66 ft | 13 kts | 249° |
| 2026-04-11 08:55 | 45.64475 | 12.17938 | 65 ft | 5 kts | 342° |
| 2026-04-11 08:55 | 45.64479 | 12.17974 | 67 ft | 5 kts | 111° |
| 2026-04-11 08:55 | 45.64485 | 12.18019 | 66 ft | 6 kts | 70° |
| 2026-04-11 08:55 | 45.64564 | 12.18319 | 66 ft | 69 kts | 69° |
| 2026-04-11 08:56 | 45.64819 | 12.19279 | 61 ft | 135 kts | 69° |
| 2026-04-11 08:56 | 45.65191 | 12.20715 | 413 ft | 160 kts | 70° |
| 2026-04-11 08:56 | 45.65476 | 12.22283 | 1137 ft | 168 kts | 89° |
| 2026-04-11 08:56 | 45.65330 | 12.23967 | 1967 ft | 171 kts | 106° |
| 2026-04-11 08:57 | 45.64960 | 12.25568 | 2892 ft | 170 kts | 116° |
| 2026-04-11 08:57 | 45.64051 | 12.26613 | 3641 ft | 175 kts | 167° |
| 2026-04-11 08:57 | 45.62840 | 12.26587 | 4469 ft | 178 kts | 194° |
| 2026-04-11 08:57 | 45.61820 | 12.25634 | 5206 ft | 184 kts | 230° |
| 2026-04-11 08:58 | 45.61330 | 12.23859 | 5715 ft | 203 kts | 266° |
| 2026-04-11 08:58 | 45.61554 | 12.21849 | 6270 ft | 209 kts | 284° |
| 2026-04-11 08:58 | 45.61927 | 12.19804 | 6789 ft | 216 kts | 284° |
| 2026-04-11 08:58 | 45.62304 | 12.17748 | 7526 ft | 212 kts | 285° |
| 2026-04-11 08:59 | 45.62684 | 12.15684 | 8132 ft | 217 kts | 285° |
| 2026-04-11 08:59 | 45.63004 | 12.13587 | 8818 ft | 216 kts | 272° |
| 2026-04-11 08:59 | 45.62654 | 12.11494 | 9494 ft | 219 kts | 249° |
| 2026-04-11 08:59 | 45.62007 | 12.09475 | 9928 ft | 232 kts | 249° |
| 2026-04-11 09:00 | 45.61291 | 12.07302 | 10173 ft | 252 kts | 248° |
| 2026-04-11 09:00 | 45.60510 | 12.04935 | 10432 ft | 275 kts | 248° |
| 2026-04-11 09:00 | 45.59675 | 12.02405 | 10708 ft | 296 kts | 248° |
| 2026-04-11 09:00 | 45.58794 | 11.99739 | 10972 ft | 316 kts | 248° |
| 2026-04-11 09:01 | 45.57857 | 11.96796 | 11239 ft | 334 kts | 253° |
| 2026-04-11 09:01 | 45.57665 | 11.93545 | 11995 ft | 327 kts | 282° |
| 2026-04-11 09:01 | 45.58476 | 11.90552 | 12933 ft | 323 kts | 302° |
| 2026-04-11 09:01 | 45.59935 | 11.88103 | 13720 ft | 327 kts | 319° |
| 2026-04-11 09:02 | 45.61900 | 11.86423 | 14397 ft | 333 kts | 335° |
| 2026-04-11 09:02 | 45.64068 | 11.85203 | 15077 ft | 337 kts | 337° |
| 2026-04-11 09:02 | 45.66280 | 11.84033 | 15743 ft | 341 kts | 337° |
| 2026-04-11 09:02 | 45.68521 | 11.82856 | 16410 ft | 344 kts | 337° |
| 2026-04-11 09:03 | 45.70776 | 11.81661 | 17052 ft | 348 kts | 336° |
| 2026-04-11 09:03 | 45.73070 | 11.80430 | 17612 ft | 354 kts | 336° |
| 2026-04-11 09:03 | 45.75396 | 11.79171 | 18275 ft | 357 kts | 336° |
| 2026-04-11 09:03 | 45.77697 | 11.77919 | 18906 ft | 358 kts | 336° |
| 2026-04-11 09:04 | 45.80036 | 11.76642 | 19522 ft | 360 kts | 336° |
| 2026-04-11 09:04 | 45.82387 | 11.75355 | 20104 ft | 363 kts | 336° |
| 2026-04-11 09:04 | 45.84754 | 11.74061 | 20732 ft | 364 kts | 336° |
| 2026-04-11 09:04 | 45.87127 | 11.72758 | 21221 ft | 368 kts | 335° |
| 2026-04-11 09:05 | 45.89512 | 11.71447 | 21766 ft | 372 kts | 335° |
| 2026-04-11 09:05 | 45.91996 | 11.70367 | 22406 ft | 375 kts | 345° |
| 2026-04-11 09:05 | 45.94612 | 11.69903 | 22878 ft | 383 kts | 352° |
| 2026-04-11 09:05 | 45.97329 | 11.70007 | 23261 ft | 395 kts | 2° |
| 2026-04-11 09:06 | 46.00040 | 11.70629 | 23824 ft | 397 kts | 4° |
| 2026-04-11 09:06 | 46.02770 | 11.71328 | 24256 ft | 399 kts | 5° |
| 2026-04-11 09:06 | 46.05515 | 11.72040 | 24608 ft | 403 kts | 5° |
| 2026-04-11 09:06 | 46.08258 | 11.72743 | 24990 ft | 405 kts | 5° |
| 2026-04-11 09:07 | 46.11045 | 11.73446 | 25409 ft | 407 kts | 5° |
| 2026-04-11 09:07 | 46.13841 | 11.74205 | 25811 ft | 411 kts | 6° |
| 2026-04-11 09:07 | 46.16666 | 11.74917 | 26212 ft | 412 kts | 4° |
| 2026-04-11 09:07 | 46.19507 | 11.75588 | 26616 ft | 415 kts | 4° |
| 2026-04-11 09:08 | 46.22364 | 11.76264 | 26995 ft | 418 kts | 5° |
| 2026-04-11 09:08 | 46.25247 | 11.76957 | 27379 ft | 420 kts | 5° |
| 2026-04-11 09:08 | 46.28133 | 11.77664 | 27725 ft | 423 kts | 5° |
| 2026-04-11 09:08 | 46.31046 | 11.78383 | 28087 ft | 425 kts | 5° |
| 2026-04-11 09:09 | 46.33975 | 11.79109 | 28427 ft | 428 kts | 5° |
| 2026-04-11 09:09 | 46.36928 | 11.79841 | 28773 ft | 430 kts | 5° |
| 2026-04-11 09:09 | 46.39827 | 11.80774 | 29102 ft | 437 kts | 14° |
| 2026-04-11 09:09 | 46.42640 | 11.82568 | 29417 ft | 447 kts | 25° |
| 2026-04-11 09:10 | 46.45239 | 11.85108 | 29744 ft | 456 kts | 36° |
| 2026-04-11 09:10 | 46.47569 | 11.88282 | 30066 ft | 461 kts | 40° |
| 2026-04-11 09:10 | 46.49837 | 11.91588 | 30331 ft | 464 kts | 41° |
| 2026-04-11 09:10 | 46.52105 | 11.94952 | 30555 ft | 467 kts | 41° |
| 2026-04-11 09:11 | 46.54377 | 11.98326 | 30843 ft | 467 kts | 41° |
| 2026-04-11 09:11 | 46.56657 | 12.01696 | 31243 ft | 466 kts | 40° |
| 2026-04-11 09:11 | 46.58903 | 12.04995 | 31628 ft | 464 kts | 40° |
| 2026-04-11 09:11 | 46.61186 | 12.08330 | 31937 ft | 465 kts | 40° |
| 2026-04-11 09:12 | 46.63479 | 12.11668 | 32221 ft | 466 kts | 40° |
| 2026-04-11 09:12 | 46.65769 | 12.14999 | 32584 ft | 465 kts | 40° |
| 2026-04-11 09:12 | 46.68054 | 12.18326 | 32947 ft | 464 kts | 40° |
| 2026-04-11 09:12 | 46.70336 | 12.21652 | 33251 ft | 465 kts | 40° |
| 2026-04-11 09:13 | 46.72626 | 12.24993 | 33531 ft | 465 kts | 40° |
| 2026-04-11 09:13 | 46.74909 | 12.28329 | 33999 ft | 461 kts | 39° |
| 2026-04-11 09:13 | 46.77165 | 12.31635 | 34395 ft | 457 kts | 39° |
| 2026-04-11 09:13 | 46.79380 | 12.34886 | 34626 ft | 458 kts | 39° |
| 2026-04-11 09:14 | 46.81638 | 12.38196 | 34807 ft | 459 kts | 39° |
| 2026-04-11 09:14 | 46.83893 | 12.41507 | 35097 ft | 458 kts | 39° |
| 2026-04-11 09:14 | 46.86134 | 12.44804 | 35445 ft | 455 kts | 39° |
| 2026-04-11 09:14 | 46.88358 | 12.48082 | 35761 ft | 453 kts | 39° |
| 2026-04-11 09:15 | 46.90573 | 12.51349 | 35973 ft | 452 kts | 39° |
| 2026-04-11 09:15 | 46.92789 | 12.54622 | 36222 ft | 452 kts | 39° |
| 2026-04-11 09:15 | 46.94998 | 12.57888 | 36482 ft | 450 kts | 39° |
| 2026-04-11 09:15 | 46.97172 | 12.61108 | 36805 ft | 449 kts | 39° |
| 2026-04-11 09:16 | 46.99368 | 12.64362 | 37080 ft | 447 kts | 38° |
| 2026-04-11 09:16 | 47.01554 | 12.67593 | 36998 ft | 448 kts | 39° |
| 2026-04-11 09:16 | 47.05912 | 12.74077 | 37028 ft | 446 kts | 39° |
| 2026-04-11 09:17 | 47.10293 | 12.80603 | 37062 ft | 452 kts | 39° |
| 2026-04-11 09:17 | 47.14728 | 12.87218 | 37082 ft | 456 kts | 39° |
| 2026-04-11 09:18 | 47.19119 | 12.93816 | 37091 ft | 447 kts | 38° |
| 2026-04-11 09:18 | 47.23377 | 13.00220 | 37041 ft | 444 kts | 38° |
| 2026-04-11 09:19 | 47.27677 | 13.06694 | 37037 ft | 440 kts | 38° |
| 2026-04-11 09:19 | 47.31948 | 13.13144 | 37038 ft | 443 kts | 38° |
| 2026-04-11 09:20 | 47.36291 | 13.19696 | 37028 ft | 449 kts | 38° |
| 2026-04-11 09:20 | 47.40643 | 13.26290 | 37040 ft | 454 kts | 39° |
| 2026-04-11 09:21 | 47.45046 | 13.32991 | 37056 ft | 451 kts | 38° |
| 2026-04-11 09:21 | 47.49371 | 13.39602 | 37052 ft | 443 kts | 38° |
| 2026-04-11 09:22 | 47.53648 | 13.46132 | 37038 ft | 445 kts | 38° |
| 2026-04-11 09:22 | 47.57944 | 13.52712 | 37065 ft | 443 kts | 38° |
| 2026-04-11 09:23 | 47.62219 | 13.59278 | 37055 ft | 442 kts | 38° |
| 2026-04-11 09:23 | 47.66486 | 13.65849 | 37064 ft | 441 kts | 38° |
| 2026-04-11 09:24 | 47.70734 | 13.72407 | 37068 ft | 440 kts | 38° |
| 2026-04-11 09:24 | 47.74951 | 13.78930 | 37071 ft | 440 kts | 38° |
| 2026-04-11 09:25 | 47.79181 | 13.85492 | 37070 ft | 439 kts | 38° |
| 2026-04-11 09:25 | 47.83412 | 13.92074 | 37088 ft | 440 kts | 38° |
| 2026-04-11 09:26 | 47.87641 | 13.98671 | 37072 ft | 439 kts | 38° |
| 2026-04-11 09:26 | 47.91751 | 14.05100 | 37093 ft | 438 kts | 38° |
| 2026-04-11 09:27 | 47.95946 | 14.11671 | 37112 ft | 437 kts | 38° |
| 2026-04-11 09:27 | 48.00131 | 14.18243 | 37106 ft | 438 kts | 38° |
| 2026-04-11 09:28 | 48.04317 | 14.24836 | 37117 ft | 437 kts | 38° |
| 2026-04-11 09:28 | 48.08471 | 14.31397 | 37127 ft | 437 kts | 38° |
| 2026-04-11 09:29 | 48.12639 | 14.37995 | 37117 ft | 436 kts | 38° |
| 2026-04-11 09:29 | 48.16802 | 14.44601 | 37135 ft | 436 kts | 38° |
| 2026-04-11 09:30 | 48.20961 | 14.51218 | 37130 ft | 435 kts | 37° |
| 2026-04-11 09:30 | 48.25109 | 14.57835 | 37115 ft | 435 kts | 38° |
| 2026-04-11 09:31 | 48.29248 | 14.64455 | 37115 ft | 434 kts | 38° |
| 2026-04-11 09:31 | 48.33373 | 14.71067 | 37117 ft | 434 kts | 38° |
| 2026-04-11 09:32 | 48.37496 | 14.77697 | 37105 ft | 433 kts | 37° |
| 2026-04-11 09:32 | 48.41579 | 14.84279 | 37115 ft | 432 kts | 37° |
| 2026-04-11 09:33 | 48.45671 | 14.90885 | 37115 ft | 430 kts | 37° |
| 2026-04-11 09:33 | 48.49750 | 14.97490 | 37117 ft | 429 kts | 37° |
| 2026-04-11 09:34 | 48.53703 | 15.03908 | 37157 ft | 428 kts | 37° |
| 2026-04-11 09:34 | 48.57749 | 15.10494 | 37136 ft | 428 kts | 37° |
| 2026-04-11 09:35 | 48.61764 | 15.17046 | 37128 ft | 427 kts | 37° |
| 2026-04-11 09:35 | 48.65788 | 15.23628 | 37130 ft | 426 kts | 37° |
| 2026-04-11 09:36 | 48.69807 | 15.30220 | 37138 ft | 426 kts | 37° |
| 2026-04-11 09:36 | 48.73822 | 15.36819 | 37145 ft | 426 kts | 37° |
| 2026-04-11 09:37 | 48.77163 | 15.42325 | 37137 ft | 427 kts | 37° |
| 2026-04-11 09:37 | 48.81189 | 15.48975 | 37139 ft | 428 kts | 37° |
| 2026-04-11 09:38 | 48.85218 | 15.55648 | 37132 ft | 428 kts | 37° |
| 2026-04-11 09:38 | 48.89293 | 15.62113 | 37125 ft | 418 kts | 29° |
| 2026-04-11 09:39 | 48.93962 | 15.67115 | 37140 ft | 408 kts | 23° |
| 2026-04-11 09:39 | 48.98680 | 15.71926 | 37140 ft | 408 kts | 23° |
| 2026-04-11 09:40 | 49.03375 | 15.76763 | 37134 ft | 407 kts | 24° |
| 2026-04-11 09:40 | 49.08054 | 15.81631 | 37138 ft | 407 kts | 24° |
| 2026-04-11 09:41 | 49.12719 | 15.86511 | 37143 ft | 407 kts | 24° |
| 2026-04-11 09:41 | 49.17384 | 15.91405 | 37143 ft | 406 kts | 24° |
| 2026-04-11 09:42 | 49.22013 | 15.96273 | 37145 ft | 407 kts | 24° |
| 2026-04-11 09:43 | 49.28943 | 16.03581 | 37132 ft | 407 kts | 24° |
| 2026-04-11 09:43 | 49.33616 | 16.08522 | 37141 ft | 407 kts | 24° |
| 2026-04-11 09:44 | 49.38280 | 16.13466 | 37139 ft | 408 kts | 24° |
| 2026-04-11 09:44 | 49.42922 | 16.18398 | 37130 ft | 409 kts | 24° |
| 2026-04-11 09:45 | 49.47603 | 16.23384 | 37142 ft | 409 kts | 24° |
| 2026-04-11 09:45 | 49.52290 | 16.28387 | 37142 ft | 411 kts | 24° |
| 2026-04-11 09:46 | 49.56995 | 16.33422 | 37127 ft | 411 kts | 24° |
| 2026-04-11 09:46 | 49.61684 | 16.38453 | 37139 ft | 411 kts | 24° |
| 2026-04-11 09:47 | 49.66378 | 16.43501 | 37143 ft | 412 kts | 23° |
| 2026-04-11 09:47 | 49.71090 | 16.48580 | 37165 ft | 413 kts | 23° |
| 2026-04-11 09:48 | 49.75782 | 16.53647 | 37142 ft | 414 kts | 23° |
| 2026-04-11 09:48 | 49.80513 | 16.58772 | 37133 ft | 416 kts | 23° |
| 2026-04-11 09:49 | 49.85261 | 16.63928 | 37130 ft | 416 kts | 24° |
| 2026-04-11 09:49 | 49.90006 | 16.69093 | 37133 ft | 417 kts | 24° |
| 2026-04-11 09:50 | 49.94756 | 16.74278 | 37143 ft | 417 kts | 24° |
| 2026-04-11 09:50 | 49.99500 | 16.79468 | 37135 ft | 417 kts | 24° |
| 2026-04-11 09:51 | 50.04214 | 16.84636 | 37131 ft | 418 kts | 24° |
| 2026-04-11 09:51 | 50.08995 | 16.89891 | 37130 ft | 418 kts | 24° |
| 2026-04-11 09:52 | 50.13748 | 16.95128 | 37143 ft | 418 kts | 24° |
| 2026-04-11 09:52 | 50.18395 | 17.00261 | 37142 ft | 419 kts | 24° |
| 2026-04-11 09:53 | 50.23159 | 17.05537 | 37132 ft | 419 kts | 24° |
| 2026-04-11 09:53 | 50.27907 | 17.10809 | 37143 ft | 419 kts | 24° |
| 2026-04-11 09:54 | 50.32668 | 17.16107 | 37149 ft | 420 kts | 25° |
| 2026-04-11 09:54 | 50.37429 | 17.21418 | 37148 ft | 421 kts | 25° |
| 2026-04-11 09:55 | 50.42173 | 17.26724 | 37150 ft | 421 kts | 25° |
| 2026-04-11 09:55 | 50.46950 | 17.32081 | 37146 ft | 422 kts | 25° |
| 2026-04-11 09:56 | 50.51717 | 17.37441 | 37188 ft | 422 kts | 25° |
| 2026-04-11 09:56 | 50.56491 | 17.42822 | 37165 ft | 421 kts | 25° |
| 2026-04-11 09:57 | 50.61258 | 17.48210 | 37150 ft | 421 kts | 25° |
| 2026-04-11 09:57 | 50.65973 | 17.53559 | 37145 ft | 413 kts | 25° |
| 2026-04-11 09:58 | 50.70570 | 17.58788 | 37147 ft | 408 kts | 25° |
| 2026-04-11 09:58 | 50.75182 | 17.64029 | 37162 ft | 408 kts | 25° |
| 2026-04-11 09:59 | 50.79780 | 17.69271 | 37155 ft | 407 kts | 25° |
| 2026-04-11 09:59 | 50.84340 | 17.74486 | 37153 ft | 407 kts | 25° |
| 2026-04-11 10:00 | 50.88932 | 17.79753 | 37151 ft | 407 kts | 25° |
| 2026-04-11 10:00 | 50.93515 | 17.85020 | 37162 ft | 408 kts | 26° |
| 2026-04-11 10:01 | 50.98119 | 17.90325 | 37163 ft | 409 kts | 26° |
| 2026-04-11 10:01 | 51.02717 | 17.95638 | 37154 ft | 410 kts | 26° |
| 2026-04-11 10:02 | 51.07228 | 18.00862 | 37014 ft | 414 kts | 26° |
| 2026-04-11 10:02 | 51.09573 | 18.03579 | 36745 ft | 416 kts | 26° |
| 2026-04-11 10:02 | 51.11912 | 18.06300 | 36525 ft | 414 kts | 26° |
| 2026-04-11 10:02 | 51.14234 | 18.09010 | 36265 ft | 411 kts | 26° |
| 2026-04-11 10:03 | 51.16536 | 18.11697 | 36015 ft | 410 kts | 26° |
| 2026-04-11 10:03 | 51.18839 | 18.14383 | 35759 ft | 410 kts | 26° |
| 2026-04-11 10:03 | 51.21138 | 18.17067 | 35157 ft | 410 kts | 25° |
| 2026-04-11 10:03 | 51.23410 | 18.19723 | 34621 ft | 410 kts | 25° |
| 2026-04-11 10:04 | 51.25715 | 18.22420 | 33990 ft | 411 kts | 25° |
| 2026-04-11 10:04 | 51.28023 | 18.25123 | 33292 ft | 412 kts | 25° |
| 2026-04-11 10:04 | 51.30336 | 18.27838 | 32639 ft | 411 kts | 25° |
| 2026-04-11 10:04 | 51.32636 | 18.30543 | 32023 ft | 411 kts | 25° |
| 2026-04-11 10:05 | 51.34935 | 18.33250 | 31453 ft | 409 kts | 25° |
| 2026-04-11 10:05 | 51.37208 | 18.35936 | 30999 ft | 404 kts | 25° |
| 2026-04-11 10:05 | 51.39459 | 18.38597 | 30535 ft | 399 kts | 25° |
| 2026-04-11 10:05 | 51.41683 | 18.41227 | 30066 ft | 395 kts | 25° |
| 2026-04-11 10:06 | 51.43882 | 18.43828 | 29547 ft | 390 kts | 25° |
| 2026-04-11 10:06 | 51.46052 | 18.46397 | 29092 ft | 384 kts | 25° |
| 2026-04-11 10:06 | 51.48194 | 18.48934 | 28636 ft | 379 kts | 26° |
| 2026-04-11 10:06 | 51.50305 | 18.51438 | 28157 ft | 376 kts | 26° |
| 2026-04-11 10:07 | 51.52372 | 18.53893 | 27692 ft | 372 kts | 26° |
| 2026-04-11 10:07 | 51.54423 | 18.56418 | 27247 ft | 377 kts | 34° |
| 2026-04-11 10:07 | 51.56073 | 18.59864 | 26773 ft | 404 kts | 54° |
| 2026-04-11 10:07 | 51.57055 | 18.64166 | 26350 ft | 419 kts | 74° |
| 2026-04-11 10:08 | 51.57278 | 18.68863 | 25912 ft | 421 kts | 82° |
| 2026-04-11 10:08 | 51.57329 | 18.73563 | 25427 ft | 419 kts | 84° |
| 2026-04-11 10:08 | 51.57343 | 18.78236 | 24956 ft | 415 kts | 85° |
| 2026-04-11 10:08 | 51.57356 | 18.82863 | 24504 ft | 411 kts | 85° |
| 2026-04-11 10:09 | 51.57380 | 18.87440 | 24057 ft | 407 kts | 85° |
| 2026-04-11 10:09 | 51.57415 | 18.91964 | 23587 ft | 403 kts | 86° |
| 2026-04-11 10:09 | 51.57456 | 18.96444 | 23077 ft | 399 kts | 86° |
| 2026-04-11 10:09 | 51.57499 | 19.00741 | 22647 ft | 393 kts | 86° |
| 2026-04-11 10:10 | 51.57544 | 19.05100 | 22201 ft | 388 kts | 86° |
| 2026-04-11 10:10 | 51.57588 | 19.09408 | 21768 ft | 383 kts | 86° |
| 2026-04-11 10:10 | 51.57630 | 19.13674 | 21330 ft | 379 kts | 86° |
| 2026-04-11 10:10 | 51.57670 | 19.17891 | 20896 ft | 375 kts | 86° |
| 2026-04-11 10:11 | 51.57708 | 19.22063 | 20472 ft | 371 kts | 86° |
| 2026-04-11 10:11 | 51.57744 | 19.26156 | 20055 ft | 368 kts | 86° |
| 2026-04-11 10:11 | 51.57777 | 19.30247 | 19660 ft | 365 kts | 86° |
| 2026-04-11 10:11 | 51.57810 | 19.34306 | 19254 ft | 361 kts | 87° |
| 2026-04-11 10:12 | 51.57840 | 19.38335 | 18851 ft | 359 kts | 87° |
| 2026-04-11 10:12 | 51.57870 | 19.42338 | 18451 ft | 356 kts | 87° |
| 2026-04-11 10:12 | 51.57898 | 19.46310 | 17988 ft | 354 kts | 87° |
| 2026-04-11 10:12 | 51.57925 | 19.50247 | 17584 ft | 350 kts | 87° |
| 2026-04-11 10:13 | 51.57948 | 19.54148 | 17150 ft | 348 kts | 87° |
| 2026-04-11 10:13 | 51.58026 | 19.58012 | 16723 ft | 344 kts | 80° |
| 2026-04-11 10:13 | 51.58815 | 19.61569 | 16356 ft | 336 kts | 56° |
| 2026-04-11 10:13 | 51.60337 | 19.64365 | 15954 ft | 333 kts | 38° |
| 2026-04-11 10:14 | 51.62322 | 19.66248 | 15549 ft | 332 kts | 22° |
| 2026-04-11 10:14 | 51.64463 | 19.67618 | 15138 ft | 330 kts | 20° |
| 2026-04-11 10:14 | 51.66572 | 19.68933 | 14711 ft | 328 kts | 20° |
| 2026-04-11 10:14 | 51.68701 | 19.70175 | 14320 ft | 325 kts | 12° |
| 2026-04-11 10:15 | 51.70939 | 19.70366 | 14084 ft | 318 kts | 352° |
| 2026-04-11 10:15 | 51.73073 | 19.69537 | 13942 ft | 315 kts | 343° |
| 2026-04-11 10:15 | 51.75193 | 19.68451 | 13786 ft | 323 kts | 342° |
| 2026-04-11 10:15 | 51.77344 | 19.67323 | 13618 ft | 327 kts | 342° |
| 2026-04-11 10:16 | 51.79514 | 19.66203 | 13448 ft | 326 kts | 343° |
| 2026-04-11 10:16 | 51.81675 | 19.65110 | 13289 ft | 324 kts | 343° |
| 2026-04-11 10:16 | 51.83802 | 19.64045 | 13133 ft | 323 kts | 343° |
| 2026-04-11 10:16 | 51.85943 | 19.62975 | 12967 ft | 322 kts | 343° |
| 2026-04-11 10:17 | 51.88083 | 19.61905 | 12841 ft | 321 kts | 343° |
| 2026-04-11 10:17 | 51.90216 | 19.60837 | 12686 ft | 321 kts | 343° |
| 2026-04-11 10:17 | 51.92352 | 19.59767 | 12527 ft | 321 kts | 343° |
| 2026-04-11 10:17 | 51.94486 | 19.58696 | 12386 ft | 320 kts | 343° |
| 2026-04-11 10:18 | 51.96597 | 19.57635 | 12237 ft | 320 kts | 343° |
| 2026-04-11 10:18 | 51.98728 | 19.56564 | 12091 ft | 320 kts | 343° |
| 2026-04-11 10:18 | 52.00855 | 19.55494 | 11940 ft | 320 kts | 343° |
| 2026-04-11 10:18 | 52.02984 | 19.54421 | 11790 ft | 320 kts | 343° |
| 2026-04-11 10:19 | 52.05112 | 19.53348 | 11641 ft | 320 kts | 343° |
| 2026-04-11 10:19 | 52.07232 | 19.52278 | 11493 ft | 319 kts | 343° |
| 2026-04-11 10:19 | 52.09392 | 19.51485 | 11322 ft | 318 kts | 359° |
| 2026-04-11 10:19 | 52.11555 | 19.52057 | 11195 ft | 315 kts | 20° |
| 2026-04-11 10:20 | 52.13472 | 19.53667 | 11067 ft | 314 kts | 30° |
| 2026-04-11 10:20 | 52.15342 | 19.55512 | 10909 ft | 314 kts | 31° |
| 2026-04-11 10:20 | 52.17212 | 19.57392 | 10761 ft | 314 kts | 31° |
| 2026-04-11 10:20 | 52.19066 | 19.59254 | 10609 ft | 313 kts | 31° |
| 2026-04-11 10:21 | 52.20902 | 19.61087 | 10458 ft | 305 kts | 31° |
| 2026-04-11 10:21 | 52.22685 | 19.62859 | 10312 ft | 295 kts | 31° |
| 2026-04-11 10:21 | 52.24424 | 19.64581 | 10174 ft | 286 kts | 31° |
| 2026-04-11 10:21 | 52.26099 | 19.66238 | 10041 ft | 278 kts | 31° |
| 2026-04-11 10:22 | 52.27706 | 19.67827 | 9904 ft | 271 kts | 31° |
| 2026-04-11 10:22 | 52.29310 | 19.69414 | 9778 ft | 268 kts | 31° |
| 2026-04-11 10:22 | 52.30901 | 19.70988 | 9658 ft | 266 kts | 31° |
| 2026-04-11 10:22 | 52.32480 | 19.72550 | 9528 ft | 262 kts | 31° |
| 2026-04-11 10:23 | 52.34020 | 19.74077 | 9405 ft | 254 kts | 31° |
| 2026-04-11 10:23 | 52.35513 | 19.75558 | 9280 ft | 247 kts | 31° |
| 2026-04-11 10:23 | 52.36859 | 19.77214 | 9141 ft | 241 kts | 51° |
| 2026-04-11 10:23 | 52.37596 | 19.79607 | 9089 ft | 235 kts | 71° |
| 2026-04-11 10:24 | 52.37916 | 19.82244 | 8962 ft | 237 kts | 80° |
| 2026-04-11 10:24 | 52.38118 | 19.84922 | 8858 ft | 237 kts | 81° |
| 2026-04-11 10:24 | 52.38307 | 19.87607 | 8752 ft | 239 kts | 81° |
| 2026-04-11 10:24 | 52.38501 | 19.90295 | 8633 ft | 241 kts | 81° |
| 2026-04-11 10:25 | 52.38703 | 19.93022 | 8523 ft | 241 kts | 81° |
| 2026-04-11 10:25 | 52.38909 | 19.95755 | 8403 ft | 242 kts | 81° |
| 2026-04-11 10:25 | 52.39118 | 19.98491 | 8303 ft | 243 kts | 80° |
| 2026-04-11 10:25 | 52.39322 | 20.01130 | 8186 ft | 244 kts | 80° |
| 2026-04-11 10:26 | 52.39463 | 20.02956 | 8106 ft | 244 kts | 81° |
| 2026-04-11 10:26 | 52.39675 | 20.05690 | 7990 ft | 241 kts | 80° |
| 2026-04-11 10:26 | 52.39886 | 20.08400 | 7791 ft | 240 kts | 80° |
| 2026-04-11 10:26 | 52.40095 | 20.11101 | 7638 ft | 235 kts | 80° |
| 2026-04-11 10:27 | 52.40299 | 20.13742 | 7516 ft | 232 kts | 81° |
| 2026-04-11 10:27 | 52.40500 | 20.16356 | 7396 ft | 230 kts | 81° |
| 2026-04-11 10:27 | 52.40817 | 20.18920 | 7276 ft | 229 kts | 62° |
| 2026-04-11 10:27 | 52.41844 | 20.20845 | 7197 ft | 225 kts | 34° |
| 2026-04-11 10:28 | 52.43184 | 20.22186 | 7093 ft | 226 kts | 28° |
| 2026-04-11 10:28 | 52.44556 | 20.23423 | 6988 ft | 229 kts | 28° |
| 2026-04-11 10:28 | 52.45956 | 20.24690 | 6880 ft | 231 kts | 28° |
| 2026-04-11 10:28 | 52.47367 | 20.25983 | 6761 ft | 232 kts | 28° |
| 2026-04-11 10:29 | 52.48779 | 20.27289 | 6660 ft | 233 kts | 30° |
| 2026-04-11 10:29 | 52.49929 | 20.29120 | 6505 ft | 233 kts | 62° |
| 2026-04-11 10:29 | 52.50415 | 20.31624 | 6423 ft | 230 kts | 77° |
| 2026-04-11 10:29 | 52.50676 | 20.34173 | 6319 ft | 231 kts | 79° |
| 2026-04-11 10:30 | 52.50913 | 20.36824 | 6213 ft | 232 kts | 79° |
| 2026-04-11 10:30 | 52.51148 | 20.39456 | 6104 ft | 233 kts | 78° |
| 2026-04-11 10:30 | 52.51385 | 20.42067 | 5986 ft | 234 kts | 78° |
| 2026-04-11 10:30 | 52.51629 | 20.44713 | 5884 ft | 235 kts | 79° |
| 2026-04-11 10:31 | 52.51875 | 20.47356 | 5761 ft | 233 kts | 78° |
| 2026-04-11 10:31 | 52.52120 | 20.49965 | 5649 ft | 229 kts | 78° |
| 2026-04-11 10:31 | 52.52364 | 20.52538 | 5540 ft | 227 kts | 78° |
| 2026-04-11 10:31 | 52.52607 | 20.55108 | 5448 ft | 228 kts | 79° |
| 2026-04-11 10:32 | 52.52850 | 20.57679 | 5337 ft | 229 kts | 78° |
| 2026-04-11 10:32 | 52.53095 | 20.60275 | 5229 ft | 229 kts | 79° |
| 2026-04-11 10:32 | 52.53335 | 20.62847 | 5026 ft | 227 kts | 79° |
| 2026-04-11 10:32 | 52.53576 | 20.65414 | 4757 ft | 228 kts | 79° |
| 2026-04-11 10:33 | 52.53816 | 20.67990 | 4493 ft | 228 kts | 78° |
| 2026-04-11 10:33 | 52.54054 | 20.70556 | 4222 ft | 227 kts | 79° |
| 2026-04-11 10:33 | 52.54289 | 20.73094 | 4047 ft | 226 kts | 78° |
| 2026-04-11 10:33 | 52.54526 | 20.75651 | 4013 ft | 226 kts | 78° |
| 2026-04-11 10:34 | 52.54761 | 20.78195 | 3996 ft | 225 kts | 78° |
| 2026-04-11 10:34 | 52.54995 | 20.80721 | 4006 ft | 224 kts | 78° |
| 2026-04-11 10:34 | 52.55222 | 20.83286 | 3854 ft | 231 kts | 83° |
| 2026-04-11 10:34 | 52.54886 | 20.85842 | 3625 ft | 234 kts | 121° |
| 2026-04-11 10:35 | 52.53663 | 20.87508 | 3460 ft | 228 kts | 156° |
| 2026-04-11 10:35 | 52.52148 | 20.88040 | 3260 ft | 220 kts | 180° |
| 2026-04-11 10:35 | 52.50672 | 20.87662 | 3087 ft | 209 kts | 194° |
| 2026-04-11 10:35 | 52.49305 | 20.87060 | 2990 ft | 196 kts | 195° |
| 2026-04-11 10:36 | 52.48047 | 20.86433 | 2979 ft | 190 kts | 205° |
| 2026-04-11 10:36 | 52.47133 | 20.85002 | 2895 ft | 185 kts | 251° |
| 2026-04-11 10:36 | 52.46876 | 20.82950 | 2635 ft | 184 kts | 262° |
| 2026-04-11 10:36 | 52.46630 | 20.80867 | 2333 ft | 185 kts | 262° |
| 2026-04-11 10:37 | 52.46417 | 20.78820 | 2033 ft | 178 kts | 263° |
| 2026-04-11 10:37 | 52.46227 | 20.76868 | 1789 ft | 170 kts | 265° |
| 2026-04-11 10:37 | 52.46048 | 20.74997 | 1547 ft | 159 kts | 264° |
| 2026-04-11 10:37 | 52.45884 | 20.73254 | 1283 ft | 151 kts | 265° |
| 2026-04-11 10:38 | 52.45729 | 20.71579 | 1040 ft | 147 kts | 263° |
| 2026-04-11 10:38 | 52.45572 | 20.69943 | 841 ft | 145 kts | 264° |
| 2026-04-11 10:38 | 52.45253 | 20.66650 | 377 ft | 142 kts | 263° |
| 2026-04-11 10:39 | 52.45124 | 20.65238 | 334 ft | 100 kts | 261° |
| 2026-04-11 10:39 | 52.45057 | 20.64475 | 337 ft | 19 kts | 261° |
| 2026-04-11 10:39 | 52.44968 | 20.64385 | 336 ft | 17 kts | 185° |
| 2026-04-11 10:39 | 52.44856 | 20.64374 | 333 ft | 16 kts | 183° |
| 2026-04-11 10:40 | 52.44764 | 20.64371 | 337 ft | 10 kts | 181° |
| 2026-04-11 10:40 | 52.44713 | 20.64424 | 337 ft | 10 kts | 96° |
| 2026-04-11 10:40 | 52.44723 | 20.64535 | 335 ft | 10 kts | 81° |
| 2026-04-11 10:40 | 52.44736 | 20.64666 | 337 ft | 13 kts | 81° |
| 2026-04-11 10:41 | 52.44751 | 20.64822 | 332 ft | 14 kts | 81° |
| 2026-04-11 10:41 | 52.44766 | 20.64975 | 334 ft | 13 kts | 81° |
| 2026-04-11 10:41 | 52.44780 | 20.65123 | 334 ft | 13 kts | 81° |
| 2026-04-11 10:41 | 52.44776 | 20.65189 | 334 ft | 5 kts | 138° |
| 2026-04-11 10:42 | 52.44743 | 20.65183 | 335 ft | 5 kts | 206° |
| 2026-04-11 10:42 | 52.44739 | 20.65180 | 334 ft | 0 kts | 206° |